sensor_id;sensor_type;location;lat;lon;timestamp;P1;durP1;ratioP1;P2;durP2;ratioP2
67595;SDS011;54410;48.694;8.934;2022-11-15T00:00:23;5.80;;;4.77;;
67595;SDS011;54410;48.694;8.934;2022-11-15T00:02:51;6.00;;;4.33;;
67595;SDS011;54410;48.694;8.934;2022-11-15T00:05:17;7.57;;;4.90;;
67595;SDS011;54410;48.694;8.934;2022-11-15T00:07:43;4.90;;;4.20;;
67595;SDS011;54410;48.694;8.934;2022-11-15T00:10:09;5.37;;;4.27;;
67595;SDS011;54410;48.694;8.934;2022-11-15T00:12:36;5.10;;;4.13;;
67595;SDS011;54410;48.694;8.934;2022-11-15T00:15:02;6.73;;;4.50;;
67595;SDS011;54410;48.694;8.934;2022-11-15T00:17:28;6.70;;;4.63;;
67595;SDS011;54410;48.694;8.934;2022-11-15T00:19:54;6.77;;;4.77;;
67595;SDS011;54410;48.694;8.934;2022-11-15T00:22:20;8.00;;;4.40;;
67595;SDS011;54410;48.694;8.934;2022-11-15T00:24:46;5.50;;;4.63;;
67595;SDS011;54410;48.694;8.934;2022-11-15T00:27:12;6.30;;;4.83;;
67595;SDS011;54410;48.694;8.934;2022-11-15T00:29:38;10.30;;;4.90;;
67595;SDS011;54410;48.694;8.934;2022-11-15T00:32:08;8.93;;;4.50;;
67595;SDS011;54410;48.694;8.934;2022-11-15T00:34:34;9.13;;;4.77;;
67595;SDS011;54410;48.694;8.934;2022-11-15T00:37:00;7.20;;;4.40;;
67595;SDS011;54410;48.694;8.934;2022-11-15T00:39:26;5.63;;;4.13;;
67595;SDS011;54410;48.694;8.934;2022-11-15T00:41:52;6.33;;;4.60;;
67595;SDS011;54410;48.694;8.934;2022-11-15T00:44:17;6.50;;;4.47;;
67595;SDS011;54410;48.694;8.934;2022-11-15T00:46:43;5.97;;;4.30;;
67595;SDS011;54410;48.694;8.934;2022-11-15T00:49:09;5.57;;;4.03;;
67595;SDS011;54410;48.694;8.934;2022-11-15T00:51:35;5.40;;;4.13;;
67595;SDS011;54410;48.694;8.934;2022-11-15T00:54:01;7.27;;;4.40;;
67595;SDS011;54410;48.694;8.934;2022-11-15T00:56:27;6.10;;;5.50;;
67595;SDS011;54410;48.694;8.934;2022-11-15T00:58:53;9.23;;;6.97;;
67595;SDS011;54410;48.694;8.934;2022-11-15T01:01:19;7.27;;;5.90;;
67595;SDS011;54410;48.694;8.934;2022-11-15T01:03:45;4.40;;;4.00;;
67595;SDS011;54410;48.694;8.934;2022-11-15T01:06:11;10.40;;;4.70;;
67595;SDS011;54410;48.694;8.934;2022-11-15T01:08:38;4.43;;;3.97;;
67595;SDS011;54410;48.694;8.934;2022-11-15T01:11:05;5.73;;;4.30;;
67595;SDS011;54410;48.694;8.934;2022-11-15T01:13:32;7.63;;;4.27;;
67595;SDS011;54410;48.694;8.934;2022-11-15T01:15:59;5.63;;;4.50;;
67595;SDS011;54410;48.694;8.934;2022-11-15T01:18:25;7.10;;;4.30;;
67595;SDS011;54410;48.694;8.934;2022-11-15T01:20:51;5.93;;;4.27;;
67595;SDS011;54410;48.694;8.934;2022-11-15T01:23:17;4.57;;;3.80;;
67595;SDS011;54410;48.694;8.934;2022-11-15T01:25:43;7.37;;;4.23;;
67595;SDS011;54410;48.694;8.934;2022-11-15T01:28:09;5.87;;;4.10;;
67595;SDS011;54410;48.694;8.934;2022-11-15T01:30:35;6.20;;;3.80;;
67595;SDS011;54410;48.694;8.934;2022-11-15T01:33:01;5.80;;;3.60;;
67595;SDS011;54410;48.694;8.934;2022-11-15T01:35:27;4.23;;;3.77;;
67595;SDS011;54410;48.694;8.934;2022-11-15T01:37:53;5.30;;;3.80;;
67595;SDS011;54410;48.694;8.934;2022-11-15T01:40:19;4.27;;;3.83;;
67595;SDS011;54410;48.694;8.934;2022-11-15T01:42:45;5.37;;;3.77;;
67595;SDS011;54410;48.694;8.934;2022-11-15T01:45:15;4.57;;;3.53;;
67595;SDS011;54410;48.694;8.934;2022-11-15T01:47:43;4.47;;;3.37;;
67595;SDS011;54410;48.694;8.934;2022-11-15T01:50:16;6.47;;;4.13;;
67595;SDS011;54410;48.694;8.934;2022-11-15T01:52:42;4.97;;;3.83;;
67595;SDS011;54410;48.694;8.934;2022-11-15T01:55:22;5.10;;;3.90;;
67595;SDS011;54410;48.694;8.934;2022-11-15T01:57:50;4.53;;;3.70;;
67595;SDS011;54410;48.694;8.934;2022-11-15T02:00:16;6.30;;;3.70;;
67595;SDS011;54410;48.694;8.934;2022-11-15T02:02:43;6.90;;;3.73;;
67595;SDS011;54410;48.694;8.934;2022-11-15T02:05:09;6.37;;;3.97;;
67595;SDS011;54410;48.694;8.934;2022-11-15T02:07:35;4.87;;;3.87;;
67595;SDS011;54410;48.694;8.934;2022-11-15T02:10:04;4.90;;;3.73;;
67595;SDS011;54410;48.694;8.934;2022-11-15T02:12:32;5.53;;;3.57;;
67595;SDS011;54410;48.694;8.934;2022-11-15T02:14:58;4.70;;;3.90;;
67595;SDS011;54410;48.694;8.934;2022-11-15T02:17:37;6.47;;;3.63;;
67595;SDS011;54410;48.694;8.934;2022-11-15T02:20:27;4.10;;;3.47;;
67595;SDS011;54410;48.694;8.934;2022-11-15T02:25:37;5.00;;;3.80;;
67595;SDS011;54410;48.694;8.934;2022-11-15T02:30:33;4.70;;;3.90;;
67595;SDS011;54410;48.694;8.934;2022-11-15T02:33:08;4.10;;;3.40;;
67595;SDS011;54410;48.694;8.934;2022-11-15T02:36:00;4.10;;;2.87;;
67595;SDS011;54410;48.694;8.934;2022-11-15T02:41:02;4.67;;;3.23;;
67595;SDS011;54410;48.694;8.934;2022-11-15T02:43:51;6.17;;;3.80;;
67595;SDS011;54410;48.694;8.934;2022-11-15T02:49:08;3.43;;;3.00;;
67595;SDS011;54410;48.694;8.934;2022-11-15T02:51:35;5.97;;;3.67;;
67595;SDS011;54410;48.694;8.934;2022-11-15T02:54:01;5.67;;;3.60;;
67595;SDS011;54410;48.694;8.934;2022-11-15T02:56:27;5.20;;;3.70;;
67595;SDS011;54410;48.694;8.934;2022-11-15T02:59:09;3.10;;;2.77;;
67595;SDS011;54410;48.694;8.934;2022-11-15T03:01:50;5.83;;;3.60;;
67595;SDS011;54410;48.694;8.934;2022-11-15T03:06:49;3.70;;;2.50;;
67595;SDS011;54410;48.694;8.934;2022-11-15T03:11:50;3.27;;;2.73;;
67595;SDS011;54410;48.694;8.934;2022-11-15T03:14:23;4.13;;;2.53;;
67595;SDS011;54410;48.694;8.934;2022-11-15T03:22:03;4.53;;;2.90;;
67595;SDS011;54410;48.694;8.934;2022-11-15T03:24:30;3.93;;;3.03;;
67595;SDS011;54410;48.694;8.934;2022-11-15T03:26:57;3.27;;;2.90;;
67595;SDS011;54410;48.694;8.934;2022-11-15T03:29:37;4.07;;;3.03;;
67595;SDS011;54410;48.694;8.934;2022-11-15T03:32:09;3.63;;;2.97;;
67595;SDS011;54410;48.694;8.934;2022-11-15T03:35:20;4.40;;;3.13;;
67595;SDS011;54410;48.694;8.934;2022-11-15T03:37:31;3.90;;;2.90;;
67595;SDS011;54410;48.694;8.934;2022-11-15T03:39:59;6.03;;;3.17;;
67595;SDS011;54410;48.694;8.934;2022-11-15T03:42:27;5.20;;;3.17;;
67595;SDS011;54410;48.694;8.934;2022-11-15T03:44:57;3.20;;;2.87;;
67595;SDS011;54410;48.694;8.934;2022-11-15T03:47:32;4.20;;;3.10;;
67595;SDS011;54410;48.694;8.934;2022-11-15T03:50:05;3.57;;;2.90;;
67595;SDS011;54410;48.694;8.934;2022-11-15T03:52:33;3.20;;;2.90;;
67595;SDS011;54410;48.694;8.934;2022-11-15T03:55:00;5.67;;;3.30;;
67595;SDS011;54410;48.694;8.934;2022-11-15T03:57:26;6.20;;;3.80;;
67595;SDS011;54410;48.694;8.934;2022-11-15T03:59:52;6.20;;;3.53;;
67595;SDS011;54410;48.694;8.934;2022-11-15T04:02:18;4.23;;;3.10;;
67595;SDS011;54410;48.694;8.934;2022-11-15T04:04:44;4.53;;;3.73;;
67595;SDS011;54410;48.694;8.934;2022-11-15T04:07:10;3.30;;;2.77;;
67595;SDS011;54410;48.694;8.934;2022-11-15T04:09:36;3.00;;;2.70;;
67595;SDS011;54410;48.694;8.934;2022-11-15T04:12:21;4.17;;;3.30;;
67595;SDS011;54410;48.694;8.934;2022-11-15T04:14:59;3.73;;;3.33;;
67595;SDS011;54410;48.694;8.934;2022-11-15T04:17:32;5.27;;;4.30;;
67595;SDS011;54410;48.694;8.934;2022-11-15T04:19:58;5.97;;;3.97;;
67595;SDS011;54410;48.694;8.934;2022-11-15T04:22:47;4.17;;;3.53;;
67595;SDS011;54410;48.694;8.934;2022-11-15T04:25:32;4.87;;;3.97;;
67595;SDS011;54410;48.694;8.934;2022-11-15T04:27:58;4.27;;;3.73;;
67595;SDS011;54410;48.694;8.934;2022-11-15T04:30:23;4.57;;;3.53;;
67595;SDS011;54410;48.694;8.934;2022-11-15T04:32:49;3.97;;;3.57;;
67595;SDS011;54410;48.694;8.934;2022-11-15T04:35:15;4.43;;;3.33;;
67595;SDS011;54410;48.694;8.934;2022-11-15T04:37:41;4.47;;;3.37;;
67595;SDS011;54410;48.694;8.934;2022-11-15T04:40:07;4.23;;;3.40;;
67595;SDS011;54410;48.694;8.934;2022-11-15T04:42:33;5.20;;;3.20;;
67595;SDS011;54410;48.694;8.934;2022-11-15T04:44:59;5.10;;;3.73;;
67595;SDS011;54410;48.694;8.934;2022-11-15T04:47:25;4.80;;;3.40;;
67595;SDS011;54410;48.694;8.934;2022-11-15T04:49:53;5.07;;;3.20;;
67595;SDS011;54410;48.694;8.934;2022-11-15T04:52:18;4.37;;;3.40;;
67595;SDS011;54410;48.694;8.934;2022-11-15T04:54:44;7.03;;;3.57;;
67595;SDS011;54410;48.694;8.934;2022-11-15T04:57:10;3.37;;;3.00;;
67595;SDS011;54410;48.694;8.934;2022-11-15T04:59:36;6.17;;;4.27;;
67595;SDS011;54410;48.694;8.934;2022-11-15T05:02:02;5.73;;;3.83;;
67595;SDS011;54410;48.694;8.934;2022-11-15T05:04:28;4.37;;;3.77;;
67595;SDS011;54410;48.694;8.934;2022-11-15T05:06:54;6.90;;;4.17;;
67595;SDS011;54410;48.694;8.934;2022-11-15T05:09:20;6.93;;;4.87;;
67595;SDS011;54410;48.694;8.934;2022-11-15T05:11:46;7.10;;;4.70;;
67595;SDS011;54410;48.694;8.934;2022-11-15T05:14:13;6.37;;;4.47;;
67595;SDS011;54410;48.694;8.934;2022-11-15T05:16:39;4.97;;;3.47;;
67595;SDS011;54410;48.694;8.934;2022-11-15T05:19:05;7.33;;;4.13;;
67595;SDS011;54410;48.694;8.934;2022-11-15T05:21:31;5.77;;;3.53;;
67595;SDS011;54410;48.694;8.934;2022-11-15T05:23:57;8.73;;;4.40;;
67595;SDS011;54410;48.694;8.934;2022-11-15T05:26:24;5.67;;;4.07;;
67595;SDS011;54410;48.694;8.934;2022-11-15T05:28:56;5.60;;;3.77;;
67595;SDS011;54410;48.694;8.934;2022-11-15T05:31:23;6.23;;;3.53;;
67595;SDS011;54410;48.694;8.934;2022-11-15T05:33:50;3.90;;;3.50;;
67595;SDS011;54410;48.694;8.934;2022-11-15T05:39:11;4.17;;;3.67;;
67595;SDS011;54410;48.694;8.934;2022-11-15T05:41:42;4.10;;;3.70;;
67595;SDS011;54410;48.694;8.934;2022-11-15T05:44:10;5.67;;;3.73;;
67595;SDS011;54410;48.694;8.934;2022-11-15T05:46:37;4.53;;;3.50;;
67595;SDS011;54410;48.694;8.934;2022-11-15T05:49:04;6.13;;;4.40;;
67595;SDS011;54410;48.694;8.934;2022-11-15T05:51:31;10.07;;;5.90;;
67595;SDS011;54410;48.694;8.934;2022-11-15T05:53:57;7.80;;;5.37;;
67595;SDS011;54410;48.694;8.934;2022-11-15T05:56:24;9.83;;;5.97;;
67595;SDS011;54410;48.694;8.934;2022-11-15T05:58:51;7.87;;;5.60;;
67595;SDS011;54410;48.694;8.934;2022-11-15T06:01:17;10.63;;;5.97;;
67595;SDS011;54410;48.694;8.934;2022-11-15T06:03:43;11.07;;;6.37;;
67595;SDS011;54410;48.694;8.934;2022-11-15T06:06:09;14.87;;;8.83;;
67595;SDS011;54410;48.694;8.934;2022-11-15T06:08:35;17.77;;;8.10;;
67595;SDS011;54410;48.694;8.934;2022-11-15T06:11:04;12.30;;;6.30;;
67595;SDS011;54410;48.694;8.934;2022-11-15T06:13:31;13.33;;;6.80;;
67595;SDS011;54410;48.694;8.934;2022-11-15T06:15:57;9.90;;;6.10;;
67595;SDS011;54410;48.694;8.934;2022-11-15T06:18:23;6.60;;;5.40;;
67595;SDS011;54410;48.694;8.934;2022-11-15T06:20:49;11.77;;;5.67;;
67595;SDS011;54410;48.694;8.934;2022-11-15T06:23:15;10.07;;;6.10;;
67595;SDS011;54410;48.694;8.934;2022-11-15T06:25:41;11.23;;;6.37;;
67595;SDS011;54410;48.694;8.934;2022-11-15T06:28:07;8.87;;;6.37;;
67595;SDS011;54410;48.694;8.934;2022-11-15T06:30:33;11.37;;;8.17;;
67595;SDS011;54410;48.694;8.934;2022-11-15T06:33:00;9.40;;;6.87;;
67595;SDS011;54410;48.694;8.934;2022-11-15T06:35:27;12.17;;;9.13;;
67595;SDS011;54410;48.694;8.934;2022-11-15T06:37:53;12.07;;;9.37;;
67595;SDS011;54410;48.694;8.934;2022-11-15T06:40:19;12.10;;;9.17;;
67595;SDS011;54410;48.694;8.934;2022-11-15T06:42:45;19.30;;;11.57;;
67595;SDS011;54410;48.694;8.934;2022-11-15T06:45:11;12.10;;;8.20;;
67595;SDS011;54410;48.694;8.934;2022-11-15T06:47:46;8.37;;;5.67;;
67595;SDS011;54410;48.694;8.934;2022-11-15T06:50:12;6.27;;;5.00;;
67595;SDS011;54410;48.694;8.934;2022-11-15T06:52:38;7.43;;;4.77;;
67595;SDS011;54410;48.694;8.934;2022-11-15T06:55:04;5.67;;;4.43;;
67595;SDS011;54410;48.694;8.934;2022-11-15T06:57:30;5.23;;;4.23;;
67595;SDS011;54410;48.694;8.934;2022-11-15T06:59:57;12.27;;;8.90;;
67595;SDS011;54410;48.694;8.934;2022-11-15T07:02:23;7.07;;;4.67;;
67595;SDS011;54410;48.694;8.934;2022-11-15T07:04:49;5.60;;;4.80;;
67595;SDS011;54410;48.694;8.934;2022-11-15T07:07:15;8.00;;;5.00;;
67595;SDS011;54410;48.694;8.934;2022-11-15T07:09:41;9.03;;;6.27;;
67595;SDS011;54410;48.694;8.934;2022-11-15T07:12:07;5.23;;;4.73;;
67595;SDS011;54410;48.694;8.934;2022-11-15T07:14:33;12.47;;;8.57;;
67595;SDS011;54410;48.694;8.934;2022-11-15T07:16:59;65.57;;;31.47;;
67595;SDS011;54410;48.694;8.934;2022-11-15T07:19:25;15.63;;;13.00;;
67595;SDS011;54410;48.694;8.934;2022-11-15T07:21:51;9.80;;;8.43;;
67595;SDS011;54410;48.694;8.934;2022-11-15T07:24:17;8.30;;;7.50;;
67595;SDS011;54410;48.694;8.934;2022-11-15T07:26:43;8.60;;;6.57;;
67595;SDS011;54410;48.694;8.934;2022-11-15T07:29:09;6.47;;;4.30;;
67595;SDS011;54410;48.694;8.934;2022-11-15T07:31:35;6.63;;;4.10;;
67595;SDS011;54410;48.694;8.934;2022-11-15T07:34:01;5.40;;;3.70;;
67595;SDS011;54410;48.694;8.934;2022-11-15T07:36:27;5.50;;;4.60;;
67595;SDS011;54410;48.694;8.934;2022-11-15T07:38:53;9.52;;;5.18;;
67595;SDS011;54410;48.694;8.934;2022-11-15T07:41:19;9.70;;;6.20;;
67595;SDS011;54410;48.694;8.934;2022-11-15T07:43:45;4.47;;;3.58;;
67595;SDS011;54410;48.694;8.934;2022-11-15T07:46:11;6.35;;;4.43;;
67595;SDS011;54410;48.694;8.934;2022-11-15T07:48:37;26.05;;;14.50;;
67595;SDS011;54410;48.694;8.934;2022-11-15T07:51:05;41.28;;;20.67;;
67595;SDS011;54410;48.694;8.934;2022-11-15T07:53:31;34.50;;;20.98;;
67595;SDS011;54410;48.694;8.934;2022-11-15T07:55:57;16.80;;;10.48;;
67595;SDS011;54410;48.694;8.934;2022-11-15T07:58:23;21.75;;;12.80;;
67595;SDS011;54410;48.694;8.934;2022-11-15T08:00:49;23.38;;;13.50;;
67595;SDS011;54410;48.694;8.934;2022-11-15T08:03:15;20.17;;;11.30;;
67595;SDS011;54410;48.694;8.934;2022-11-15T08:05:42;41.40;;;23.95;;
67595;SDS011;54410;48.694;8.934;2022-11-15T08:08:09;9.82;;;6.80;;
67595;SDS011;54410;48.694;8.934;2022-11-15T08:10:36;21.02;;;13.23;;
67595;SDS011;54410;48.694;8.934;2022-11-15T08:13:10;10.13;;;6.40;;
67595;SDS011;54410;48.694;8.934;2022-11-15T08:15:36;9.57;;;5.60;;
67595;SDS011;54410;48.694;8.934;2022-11-15T08:18:03;8.00;;;4.30;;
67595;SDS011;54410;48.694;8.934;2022-11-15T08:20:30;6.40;;;3.63;;
67595;SDS011;54410;48.694;8.934;2022-11-15T08:22:56;21.88;;;11.63;;
67595;SDS011;54410;48.694;8.934;2022-11-15T08:25:23;12.02;;;6.78;;
67595;SDS011;54410;48.694;8.934;2022-11-15T08:27:51;8.32;;;3.85;;
67595;SDS011;54410;48.694;8.934;2022-11-15T08:30:18;9.07;;;6.22;;
67595;SDS011;54410;48.694;8.934;2022-11-15T08:32:44;17.90;;;5.88;;
67595;SDS011;54410;48.694;8.934;2022-11-15T08:35:10;11.20;;;4.65;;
67595;SDS011;54410;48.694;8.934;2022-11-15T08:37:36;11.00;;;3.92;;
67595;SDS011;54410;48.694;8.934;2022-11-15T08:40:03;26.88;;;7.43;;
67595;SDS011;54410;48.694;8.934;2022-11-15T08:42:29;9.80;;;3.55;;
67595;SDS011;54410;48.694;8.934;2022-11-15T08:44:55;10.77;;;4.30;;
67595;SDS011;54410;48.694;8.934;2022-11-15T08:47:21;13.70;;;8.23;;
67595;SDS011;54410;48.694;8.934;2022-11-15T08:49:47;9.80;;;5.32;;
67595;SDS011;54410;48.694;8.934;2022-11-15T08:52:13;9.02;;;4.43;;
67595;SDS011;54410;48.694;8.934;2022-11-15T08:54:39;5.85;;;2.53;;
67595;SDS011;54410;48.694;8.934;2022-11-15T08:57:05;7.10;;;2.30;;
67595;SDS011;54410;48.694;8.934;2022-11-15T08:59:31;4.18;;;2.20;;
67595;SDS011;54410;48.694;8.934;2022-11-15T09:01:57;10.75;;;4.15;;
67595;SDS011;54410;48.694;8.934;2022-11-15T09:04:23;10.35;;;5.65;;
67595;SDS011;54410;48.694;8.934;2022-11-15T09:06:50;8.18;;;3.10;;
67595;SDS011;54410;48.694;8.934;2022-11-15T09:09:16;4.45;;;2.13;;
67595;SDS011;54410;48.694;8.934;2022-11-15T09:11:42;4.45;;;3.67;;
67595;SDS011;54410;48.694;8.934;2022-11-15T09:14:10;3.78;;;2.00;;
67595;SDS011;54410;48.694;8.934;2022-11-15T09:16:36;7.18;;;2.30;;
67595;SDS011;54410;48.694;8.934;2022-11-15T09:19:02;3.75;;;2.30;;
67595;SDS011;54410;48.694;8.934;2022-11-15T09:21:28;8.65;;;2.72;;
67595;SDS011;54410;48.694;8.934;2022-11-15T09:23:54;3.65;;;1.77;;
67595;SDS011;54410;48.694;8.934;2022-11-15T09:26:20;3.95;;;2.40;;
67595;SDS011;54410;48.694;8.934;2022-11-15T09:28:46;6.25;;;4.68;;
67595;SDS011;54410;48.694;8.934;2022-11-15T09:31:12;3.85;;;3.05;;
67595;SDS011;54410;48.694;8.934;2022-11-15T09:33:38;4.30;;;1.85;;
67595;SDS011;54410;48.694;8.934;2022-11-15T09:36:04;9.63;;;4.47;;
67595;SDS011;54410;48.694;8.934;2022-11-15T09:38:31;3.70;;;2.03;;
67595;SDS011;54410;48.694;8.934;2022-11-15T09:41:06;5.82;;;3.00;;
67595;SDS011;54410;48.694;8.934;2022-11-15T09:48:54;2.72;;;2.13;;
67595;SDS011;54410;48.694;8.934;2022-11-15T09:56:18;2.30;;;1.48;;
67595;SDS011;54410;48.694;8.934;2022-11-15T10:01:13;2.38;;;1.70;;
67595;SDS011;54410;48.694;8.934;2022-11-15T10:03:42;4.32;;;2.13;;
67595;SDS011;54410;48.694;8.934;2022-11-15T10:06:14;2.65;;;1.52;;
67595;SDS011;54410;48.694;8.934;2022-11-15T10:11:10;2.60;;;1.80;;
67595;SDS011;54410;48.694;8.934;2022-11-15T10:13:40;4.30;;;2.00;;
67595;SDS011;54410;48.694;8.934;2022-11-15T10:16:18;2.85;;;1.98;;
67595;SDS011;54410;48.694;8.934;2022-11-15T10:21:30;2.78;;;1.70;;
67595;SDS011;54410;48.694;8.934;2022-11-15T10:24:07;2.28;;;1.70;;
67595;SDS011;54410;48.694;8.934;2022-11-15T10:26:35;2.17;;;1.98;;
67595;SDS011;54410;48.694;8.934;2022-11-15T10:29:01;4.25;;;2.72;;
67595;SDS011;54410;48.694;8.934;2022-11-15T10:31:28;4.25;;;2.33;;
67595;SDS011;54410;48.694;8.934;2022-11-15T10:34:11;3.95;;;2.45;;
67595;SDS011;54410;48.694;8.934;2022-11-15T10:36:54;4.57;;;2.58;;
67595;SDS011;54410;48.694;8.934;2022-11-15T10:39:21;5.07;;;2.08;;
67595;SDS011;54410;48.694;8.934;2022-11-15T10:41:47;4.07;;;1.80;;
67595;SDS011;54410;48.694;8.934;2022-11-15T10:46:42;3.88;;;2.40;;
67595;SDS011;54410;48.694;8.934;2022-11-15T10:49:18;2.25;;;1.75;;
67595;SDS011;54410;48.694;8.934;2022-11-15T10:51:46;2.80;;;1.75;;
67595;SDS011;54410;48.694;8.934;2022-11-15T10:54:13;5.70;;;4.13;;
67595;SDS011;54410;48.694;8.934;2022-11-15T10:56:41;5.45;;;2.47;;
67595;SDS011;54410;48.694;8.934;2022-11-15T10:59:14;4.00;;;1.92;;
67595;SDS011;54410;48.694;8.934;2022-11-15T11:01:47;2.17;;;1.52;;
67595;SDS011;54410;48.694;8.934;2022-11-15T11:04:13;2.45;;;2.00;;
67595;SDS011;54410;48.694;8.934;2022-11-15T11:09:31;5.15;;;2.72;;
67595;SDS011;54410;48.694;8.934;2022-11-15T11:11:58;6.22;;;2.67;;
67595;SDS011;54410;48.694;8.934;2022-11-15T11:14:28;2.53;;;1.90;;
67595;SDS011;54410;48.694;8.934;2022-11-15T11:17:02;2.60;;;1.77;;
67595;SDS011;54410;48.694;8.934;2022-11-15T11:32:49;4.07;;;2.63;;
67595;SDS011;54410;48.694;8.934;2022-11-15T11:37:49;4.43;;;3.10;;
67595;SDS011;54410;48.694;8.934;2022-11-15T11:40:19;4.28;;;3.13;;
67595;SDS011;54410;48.694;8.934;2022-11-15T11:47:51;4.78;;;2.83;;
67595;SDS011;54410;48.694;8.934;2022-11-15T11:50:20;3.63;;;2.35;;
67595;SDS011;54410;48.694;8.934;2022-11-15T11:57:43;6.70;;;3.85;;
67595;SDS011;54410;48.694;8.934;2022-11-15T12:00:19;8.68;;;5.10;;
67595;SDS011;54410;48.694;8.934;2022-11-15T12:05:36;4.75;;;2.55;;
67595;SDS011;54410;48.694;8.934;2022-11-15T12:08:18;3.10;;;2.72;;
67595;SDS011;54410;48.694;8.934;2022-11-15T12:11:02;4.97;;;2.50;;
67595;SDS011;54410;48.694;8.934;2022-11-15T12:13:29;3.95;;;2.25;;
67595;SDS011;54410;48.694;8.934;2022-11-15T12:18:39;3.65;;;2.35;;
67595;SDS011;54410;48.694;8.934;2022-11-15T12:21:18;5.03;;;2.33;;
67595;SDS011;54410;48.694;8.934;2022-11-15T12:23:47;6.68;;;4.53;;
67595;SDS011;54410;48.694;8.934;2022-11-15T12:26:26;6.82;;;4.53;;
67595;SDS011;54410;48.694;8.934;2022-11-15T12:28:58;6.55;;;3.38;;
67595;SDS011;54410;48.694;8.934;2022-11-15T12:34:43;4.35;;;2.95;;
67595;SDS011;54410;48.694;8.934;2022-11-15T12:36:50;3.83;;;2.90;;
67595;SDS011;54410;48.694;8.934;2022-11-15T12:39:16;4.13;;;2.60;;
67595;SDS011;54410;48.694;8.934;2022-11-15T12:41:43;3.08;;;2.28;;
67595;SDS011;54410;48.694;8.934;2022-11-15T12:44:11;3.60;;;2.53;;
67595;SDS011;54410;48.694;8.934;2022-11-15T13:03:12;5.22;;;2.90;;
67595;SDS011;54410;48.694;8.934;2022-11-15T13:08:34;5.05;;;3.70;;
67595;SDS011;54410;48.694;8.934;2022-11-15T13:11:18;12.38;;;9.82;;
67595;SDS011;54410;48.694;8.934;2022-11-15T13:13:46;4.68;;;3.30;;
67595;SDS011;54410;48.694;8.934;2022-11-15T13:16:15;5.90;;;3.40;;
67595;SDS011;54410;48.694;8.934;2022-11-15T13:18:43;4.88;;;2.85;;
67595;SDS011;54410;48.694;8.934;2022-11-15T13:21:20;3.95;;;2.53;;
67595;SDS011;54410;48.694;8.934;2022-11-15T13:24:09;6.53;;;3.08;;
67595;SDS011;54410;48.694;8.934;2022-11-15T13:26:37;4.32;;;3.08;;
67595;SDS011;54410;48.694;8.934;2022-11-15T13:29:04;4.93;;;3.03;;
67595;SDS011;54410;48.694;8.934;2022-11-15T13:34:03;4.28;;;3.45;;
67595;SDS011;54410;48.694;8.934;2022-11-15T13:36:32;6.05;;;3.88;;
67595;SDS011;54410;48.694;8.934;2022-11-15T13:39:03;10.90;;;7.40;;
67595;SDS011;54410;48.694;8.934;2022-11-15T13:41:30;5.93;;;4.28;;
67595;SDS011;54410;48.694;8.934;2022-11-15T13:43:57;4.85;;;3.50;;
67595;SDS011;54410;48.694;8.934;2022-11-15T13:46:33;4.35;;;3.17;;
67595;SDS011;54410;48.694;8.934;2022-11-15T13:49:00;3.60;;;2.65;;
67595;SDS011;54410;48.694;8.934;2022-11-15T13:51:34;2.97;;;2.67;;
67595;SDS011;54410;48.694;8.934;2022-11-15T13:54:02;10.05;;;3.00;;
67595;SDS011;54410;48.694;8.934;2022-11-15T13:56:29;5.03;;;2.47;;
67595;SDS011;54410;48.694;8.934;2022-11-15T13:58:56;5.93;;;3.47;;
67595;SDS011;54410;48.694;8.934;2022-11-15T14:01:23;9.00;;;4.53;;
67595;SDS011;54410;48.694;8.934;2022-11-15T14:03:57;5.75;;;3.30;;
67595;SDS011;54410;48.694;8.934;2022-11-15T14:06:25;2.67;;;1.88;;
67595;SDS011;54410;48.694;8.934;2022-11-15T14:11:24;3.65;;;2.50;;
67595;SDS011;54410;48.694;8.934;2022-11-15T14:14:01;2.55;;;2.22;;
67595;SDS011;54410;48.694;8.934;2022-11-15T14:19:04;3.10;;;2.13;;
67595;SDS011;54410;48.694;8.934;2022-11-15T14:21:30;2.15;;;1.67;;
67595;SDS011;54410;48.694;8.934;2022-11-15T14:26:41;2.40;;;1.88;;
67595;SDS011;54410;48.694;8.934;2022-11-15T14:29:26;2.42;;;1.92;;
67595;SDS011;54410;48.694;8.934;2022-11-15T14:31:52;2.35;;;1.90;;
67595;SDS011;54410;48.694;8.934;2022-11-15T14:34:18;2.30;;;1.88;;
67595;SDS011;54410;48.694;8.934;2022-11-15T14:36:47;1.63;;;1.52;;
67595;SDS011;54410;48.694;8.934;2022-11-15T14:39:13;2.70;;;1.70;;
67595;SDS011;54410;48.694;8.934;2022-11-15T14:41:39;5.30;;;1.70;;
67595;SDS011;54410;48.694;8.934;2022-11-15T14:44:05;2.05;;;1.80;;
67595;SDS011;54410;48.694;8.934;2022-11-15T14:46:31;3.20;;;2.13;;
67595;SDS011;54410;48.694;8.934;2022-11-15T14:48:57;3.80;;;2.75;;
67595;SDS011;54410;48.694;8.934;2022-11-15T14:51:23;3.95;;;2.03;;
67595;SDS011;54410;48.694;8.934;2022-11-15T14:53:50;2.30;;;1.70;;
67595;SDS011;54410;48.694;8.934;2022-11-15T14:56:17;2.00;;;1.70;;
67595;SDS011;54410;48.694;8.934;2022-11-15T14:58:43;3.70;;;1.77;;
67595;SDS011;54410;48.694;8.934;2022-11-15T15:01:12;2.70;;;1.80;;
67595;SDS011;54410;48.694;8.934;2022-11-15T15:03:38;2.60;;;2.20;;
67595;SDS011;54410;48.694;8.934;2022-11-15T15:06:04;5.07;;;2.83;;
67595;SDS011;54410;48.694;8.934;2022-11-15T15:08:30;7.80;;;3.38;;
67595;SDS011;54410;48.694;8.934;2022-11-15T15:10:56;14.18;;;7.90;;
67595;SDS011;54410;48.694;8.934;2022-11-15T15:13:23;8.00;;;4.50;;
67595;SDS011;54410;48.694;8.934;2022-11-15T15:15:50;4.18;;;3.28;;
67595;SDS011;54410;48.694;8.934;2022-11-15T15:18:17;3.78;;;3.00;;
67595;SDS011;54410;48.694;8.934;2022-11-15T15:20:43;7.82;;;4.00;;
67595;SDS011;54410;48.694;8.934;2022-11-15T15:23:14;10.55;;;4.47;;
67595;SDS011;54410;48.694;8.934;2022-11-15T15:25:40;8.30;;;4.93;;
67595;SDS011;54410;48.694;8.934;2022-11-15T15:28:07;6.30;;;4.28;;
67595;SDS011;54410;48.694;8.934;2022-11-15T15:30:32;4.75;;;3.38;;
67595;SDS011;54410;48.694;8.934;2022-11-15T15:32:58;5.35;;;3.30;;
67595;SDS011;54410;48.694;8.934;2022-11-15T15:35:26;3.95;;;3.08;;
67595;SDS011;54410;48.694;8.934;2022-11-15T15:37:55;5.53;;;4.65;;
67595;SDS011;54410;48.694;8.934;2022-11-15T15:40:21;6.80;;;4.40;;
67595;SDS011;54410;48.694;8.934;2022-11-15T15:42:48;8.50;;;6.80;;
67595;SDS011;54410;48.694;8.934;2022-11-15T15:45:14;8.38;;;6.78;;
67595;SDS011;54410;48.694;8.934;2022-11-15T15:47:41;16.95;;;11.20;;
67595;SDS011;54410;48.694;8.934;2022-11-15T15:50:23;12.25;;;10.10;;
67595;SDS011;54410;48.694;8.934;2022-11-15T15:52:50;10.52;;;8.32;;
67595;SDS011;54410;48.694;8.934;2022-11-15T15:55:17;8.73;;;5.80;;
67595;SDS011;54410;48.694;8.934;2022-11-15T15:57:43;11.13;;;7.47;;
67595;SDS011;54410;48.694;8.934;2022-11-15T16:00:09;4.47;;;3.17;;
67595;SDS011;54410;48.694;8.934;2022-11-15T16:02:36;4.35;;;2.78;;
67595;SDS011;54410;48.694;8.934;2022-11-15T16:05:01;5.85;;;3.70;;
67595;SDS011;54410;48.694;8.934;2022-11-15T16:07:27;10.98;;;8.25;;
67595;SDS011;54410;48.694;8.934;2022-11-15T16:09:54;8.57;;;6.18;;
67595;SDS011;54410;48.694;8.934;2022-11-15T16:12:29;6.95;;;4.20;;
67595;SDS011;54410;48.694;8.934;2022-11-15T16:14:56;9.73;;;6.55;;
67595;SDS011;54410;48.694;8.934;2022-11-15T16:17:23;8.70;;;4.30;;
67595;SDS011;54410;48.694;8.934;2022-11-15T16:19:49;6.40;;;4.95;;
67595;SDS011;54410;48.694;8.934;2022-11-15T16:22:16;6.18;;;3.30;;
67595;SDS011;54410;48.694;8.934;2022-11-15T16:24:41;5.88;;;4.22;;
67595;SDS011;54410;48.694;8.934;2022-11-15T16:27:12;5.60;;;4.20;;
67595;SDS011;54410;48.694;8.934;2022-11-15T16:29:48;7.68;;;4.68;;
67595;SDS011;54410;48.694;8.934;2022-11-15T16:32:14;7.28;;;5.82;;
67595;SDS011;54410;48.694;8.934;2022-11-15T16:34:40;14.35;;;10.18;;
67595;SDS011;54410;48.694;8.934;2022-11-15T16:37:11;21.08;;;12.93;;
67595;SDS011;54410;48.694;8.934;2022-11-15T16:39:49;19.33;;;12.30;;
67595;SDS011;54410;48.694;8.934;2022-11-15T16:42:15;27.58;;;15.20;;